| time (UTC) | temp C | wind direction | speed KPH | gust KPH | rain 1hr cm | rain 24hr cm | rain mn cm | humidity % | barometer mb |
| 20260905161015 | 22 | 236 | 4.8 | 6.4 | 0.00 | 2.13 | 2.13 | 91 | 1014.6 |
| 20260905160517 | 21 | 210 | 0.0 | 6.4 | 0.00 | 2.13 | 2.13 | 90 | 1014.6 |
| 20260905160053 | 21 | 250 | 0.0 | 3.2 | 0.00 | 2.13 | 2.13 | 92 | 1014.5 |
| 20260905155514 | 21 | 70 | 0.0 | 3.2 | 0.00 | 2.13 | 2.13 | 92 | 1014.4 |
| 20260905155006 | 21 | 70 | 0.0 | 4.8 | 0.03 | 2.13 | 2.13 | 92 | 1014.3 |
| 20260905154512 | 21 | 170 | 1.6 | 8.0 | 0.03 | 2.13 | 2.13 | 92 | 1014.8 |
| 20260905154008 | 21 | 242 | 1.6 | 8.0 | 0.03 | 2.13 | 2.13 | 92 | 1014.8 |
| 20260905153508 | 21 | 155 | 3.2 | 6.4 | 0.03 | 2.13 | 2.13 | 92 | 1015.2 |
| 20260905153022 | 21 | 236 | 3.2 | 6.4 | 0.03 | 2.13 | 2.13 | 92 | 1015.2 |
| 20260905152511 | 21 | 348 | 1.6 | 6.4 | 0.05 | 2.13 | 2.13 | 92 | 1015.1 |
| 20260905152013 | 21 | 269 | 0.0 | 6.4 | 0.05 | 2.13 | 2.13 | 91 | 1015.1 |
| 20260905151533 | 21 | 211 | 1.6 | 6.4 | 0.05 | 2.13 | 2.13 | 91 | 1014.8 |
| 20260905151013 | 21 | 325 | 3.2 | 9.7 | 0.05 | 2.13 | 2.13 | 91 | 1015.0 |
| 20260905150514 | 21 | 344 | 4.8 | 9.7 | 0.08 | 2.13 | 2.13 | 91 | 1015.0 |
| 20260905150034 | 21 | 346 | 4.8 | 9.7 | 0.08 | 2.13 | 2.13 | 91 | 1015.1 |
| 20260905145517 | 21 | 338 | 6.4 | 9.7 | 0.08 | 2.13 | 2.13 | 91 | 1015.2 |
| 20260905145021 | 21 | 317 | 3.2 | 4.8 | 0.05 | 2.11 | 2.11 | 91 | 1014.9 |
| 20260905144532 | 21 | 342 | 0.0 | 3.2 | 0.05 | 2.11 | 2.11 | 91 | 1014.5 |
| 20260905144007 | 21 | 214 | 0.0 | 3.2 | 0.05 | 2.11 | 2.11 | 90 | 1014.4 |
| 20260905143508 | 21 | 214 | 0.0 | 8.0 | 0.05 | 2.11 | 2.11 | 90 | 1014.3 |
| 20260905143017 | 21 | 215 | 1.6 | 20.9 | 0.05 | 2.11 | 2.11 | 89 | 1014.2 |
| 20260905142508 | 21 | 345 | 8.0 | 20.9 | 0.03 | 2.08 | 2.08 | 89 | 1014.5 |
| 20260905142011 | 21 | 342 | 4.8 | 12.9 | 0.03 | 2.08 | 2.08 | 89 | 1014.4 |
| 20260905141523 | 21 | 334 | 1.6 | 3.2 | 0.03 | 2.08 | 2.08 | 88 | 1014.3 |
| 20260905141013 | 21 | 202 | 0.0 | 3.2 | 0.03 | 2.08 | 2.08 | 88 | 1014.1 |
| 20260905140514 | 21 | 206 | 1.6 | 4.8 | 0.00 | 2.06 | 2.06 | 88 | 1014.0 |
| 20260905140031 | 21 | 227 | 1.6 | 6.4 | 0.00 | 2.06 | 2.06 | 89 | 1014.3 |
| 20260905135513 | 21 | 190 | 0.0 | 8.0 | 0.00 | 2.06 | 2.06 | 88 | 1014.2 |
| 20260905135018 | 21 | 205 | 3.2 | 9.7 | 0.00 | 2.06 | 2.06 | 88 | 1014.1 |
| 20260905134535 | 21 | 214 | 3.2 | 11.3 | 0.00 | 2.06 | 2.06 | 87 | 1014.1 |
| 20260905134019 | 21 | 192 | 1.6 | 11.3 | 0.00 | 2.06 | 2.06 | 88 | 1013.8 |
| 20260905133517 | 22 | 173 | 1.6 | 11.3 | 0.00 | 2.06 | 2.06 | 88 | 1013.9 |
| 20260905133015 | 21 | 208 | 4.8 | 11.3 | 0.00 | 2.06 | 2.06 | 89 | 1014.0 |
| 20260905132510 | 21 | 140 | 4.8 | 11.3 | 0.00 | 2.06 | 2.06 | 89 | 1014.0 |
| 20260905132010 | 21 | 153 | 1.6 | 11.3 | 0.00 | 2.06 | 2.06 | 90 | 1014.0 |
| 20260905131523 | 21 | 144 | 1.6 | 8.0 | 0.03 | 2.06 | 2.06 | 90 | 1014.1 |
| 20260905131016 | 20 | 180 | 3.2 | 8.0 | 0.08 | 2.06 | 2.06 | 92 | 1014.0 |
| 20260905130512 | 20 | 190 | 1.6 | 8.0 | 0.08 | 2.06 | 2.06 | 92 | 1013.9 |
| 20260905130028 | 20 | 162 | 3.2 | 6.4 | 0.08 | 2.06 | 2.06 | 92 | 1014.1 |
| 20260905125515 | 20 | 154 | 1.6 | 9.7 | 0.08 | 2.06 | 2.06 | 92 | 1014.3 |
| 20260905125014 | 20 | 146 | 6.4 | 9.7 | 0.08 | 2.06 | 2.06 | 92 | 1014.6 |
| 20260905124538 | 19 | 129 | 3.2 | 4.8 | 0.08 | 2.06 | 2.06 | 92 | 1014.7 |
| 20260905124015 | 19 | 129 | 0.0 | 11.3 | 0.08 | 2.06 | 2.06 | 92 | 1014.8 |
| 20260905123516 | 19 | 100 | 1.6 | 11.3 | 0.08 | 2.06 | 2.06 | 91 | 1014.9 |
| 20260905123033 | 19 | 144 | 6.4 | 11.3 | 0.08 | 2.06 | 2.06 | 91 | 1014.9 |
| 20260905122517 | 19 | 112 | 4.8 | 9.7 | 0.08 | 2.06 | 2.06 | 91 | 1014.9 |
| 20260905122009 | 19 | 180 | 3.2 | 8.0 | 0.08 | 2.06 | 2.06 | 91 | 1014.9 |
| 20260905121521 | 19 | 172 | 3.2 | 8.0 | 0.05 | 2.03 | 2.03 | 91 | 1015.3 |
| 20260905121011 | 19 | 332 | 3.2 | 6.4 | 0.00 | 1.98 | 1.98 | 91 | 1015.5 |
| 20260905120511 | 19 | 57 | 3.2 | 9.7 | 0.03 | 1.98 | 1.98 | 92 | 1014.8 |
| 20260905120027 | 19 | 105 | 4.8 | 9.7 | 0.03 | 1.98 | 1.98 | 91 | 1014.8 |
| 20260905115514 | 19 | 63 | 4.8 | 8.0 | 0.03 | 1.98 | 1.98 | 92 | 1015.3 |
| 20260905115015 | 19 | 79 | 1.6 | 11.3 | 0.03 | 1.98 | 1.98 | 92 | 1015.1 |
| 20260905114529 | 19 | 102 | 1.6 | 11.3 | 0.03 | 1.98 | 1.98 | 93 | 1014.8 |
| 20260905114005 | 19 | 144 | 4.8 | 8.0 | 0.03 | 1.98 | 1.98 | 93 | 1014.8 |
| 20260905113503 | 19 | 88 | 3.2 | 6.4 | 0.10 | 1.98 | 1.98 | 93 | 1015.1 |
| 20260905113010 | 19 | 71 | 3.2 | 3.2 | 0.48 | 1.98 | 1.98 | 93 | 1015.1 |
| 20260905112506 | 19 | 67 | 3.2 | 3.2 | 0.74 | 1.98 | 1.98 | 93 | 1015.2 |
| 20260905112007 | 19 | 96 | 3.2 | 3.2 | 0.76 | 1.98 | 1.98 | 93 | 1015.3 |
| 20260905111516 | 19 | 79 | 0.0 | 6.4 | 0.84 | 1.98 | 1.98 | 93 | 1015.2 |
| 20260905111011 | 19 | 79 | 1.6 | 6.4 | 0.99 | 1.98 | 1.98 | 93 | 1015.0 |
| 20260905110510 | 19 | 146 | 4.8 | 6.4 | 1.17 | 1.96 | 1.96 | 93 | 1014.8 |
| 20260905110023 | 19 | 128 | 3.2 | 6.4 | 1.27 | 1.96 | 1.96 | 93 | 1014.6 |
| 20260905105502 | 19 | 123 | 1.6 | 8.0 | 1.32 | 1.96 | 1.96 | 93 | 1014.5 |
| 20260905105002 | 19 | 105 | 3.2 | 12.9 | 1.40 | 1.96 | 1.96 | 93 | 1014.7 |
| 20260905104511 | 19 | 61 | 6.4 | 16.1 | 1.45 | 1.96 | 1.96 | 93 | 1014.8 |
| 20260905104002 | 19 | 55 | 3.2 | 17.7 | 1.52 | 1.96 | 1.96 | 93 | 1015.2 |
| 20260905103505 | 18 | 80 | 9.7 | 19.3 | 1.55 | 1.88 | 1.88 | 92 | 1015.4 |
| 20260905103017 | 18 | 56 | 12.9 | 19.3 | 1.17 | 1.47 | 1.47 | 92 | 1015.1 |
| 20260905102505 | 18 | 79 | 9.7 | 19.3 | 0.94 | 1.24 | 1.24 | 92 | 1015.5 |
| 20260905102005 | 18 | 64 | 9.7 | 19.3 | 0.94 | 1.22 | 1.22 | 92 | 1015.4 |
| 20260905101516 | 18 | 74 | 11.3 | 16.1 | 0.91 | 1.14 | 1.14 | 92 | 1015.3 |
| 20260905101008 | 18 | 64 | 9.7 | 16.1 | 0.79 | 0.99 | 0.99 | 91 | 1015.8 |
| 20260905100510 | 19 | 59 | 6.4 | 16.1 | 0.69 | 0.79 | 0.79 | 91 | 1016.0 |
| 20260905100019 | 19 | 53 | 3.2 | 17.7 | 0.69 | 0.69 | 0.69 | 91 | 1016.3 |
| 20260905095510 | 19 | 65 | 8.0 | 17.7 | 0.61 | 0.61 | 0.61 | 91 | 1015.8 |
| 20260905095011 | 19 | 78 | 3.2 | 11.3 | 0.56 | 0.56 | 0.56 | 92 | 1016.0 |
| 20260905094534 | 19 | 60 | 3.2 | 4.8 | 0.51 | 0.51 | 0.51 | 91 | 1016.1 |
| 20260905094002 | 19 | 56 | 3.2 | 6.4 | 0.43 | 0.43 | 0.43 | 91 | 1016.2 |
| 20260905093502 | 19 | 37 | 3.2 | 17.7 | 0.33 | 0.33 | 0.33 | 91 | 1016.1 |
| 20260905093008 | 19 | 62 | 8.0 | 17.7 | 0.33 | 0.33 | 0.33 | 91 | 1015.6 |
| 20260905092503 | 19 | 68 | 8.0 | 17.7 | 0.30 | 0.30 | 0.30 | 91 | 1015.6 |
| 20260905092003 | 19 | 56 | 9.7 | 17.7 | 0.28 | 0.28 | 0.28 | 91 | 1015.9 |
| 20260905091529 | 19 | 95 | 9.7 | 16.1 | 0.23 | 0.23 | 0.23 | 91 | 1015.9 |
| 20260905091007 | 19 | 74 | 8.0 | 16.1 | 0.20 | 0.20 | 0.20 | 91 | 1016.1 |
| 20260905090506 | 19 | 38 | 4.8 | 14.5 | 0.10 | 0.10 | 0.10 | 90 | 1016.4 |
| 20260905090015 | 19 | 45 | 4.8 | 19.3 | 0.00 | 0.00 | 0.00 | 90 | 1016.9 |
| 20260905085512 | 20 | 59 | 9.7 | 30.6 | 0.00 | 0.00 | 0.00 | 88 | 1016.6 |
| 20260905085010 | 20 | 76 | 8.0 | 30.6 | 0.00 | 0.00 | 0.00 | 85 | 1016.8 |
| 20260905084526 | 21 | 74 | 11.3 | 32.2 | 0.00 | 0.00 | 0.00 | 82 | 1016.8 |
| 20260905084013 | 21 | 44 | 11.3 | 32.2 | 0.00 | 0.00 | 0.00 | 80 | 1016.7 |
| 20260905083514 | 21 | 57 | 11.3 | 30.6 | 0.00 | 0.00 | 0.00 | 80 | 1016.5 |
| 20260905083004 | 21 | 55 | 12.9 | 30.6 | 0.00 | 0.00 | 0.00 | 80 | 1016.4 |
| 20260905082503 | 21 | 58 | 8.0 | 24.1 | 0.00 | 0.00 | 0.00 | 80 | 1016.5 |
| 20260905082004 | 22 | 47 | 12.9 | 33.8 | 0.00 | 0.00 | 0.00 | 81 | 1016.1 |
| 20260905081511 | 22 | 59 | 11.3 | 33.8 | 0.00 | 0.00 | 0.00 | 84 | 1015.8 |
| 20260905081008 | 22 | 54 | 8.0 | 16.1 | 0.00 | 0.00 | 0.00 | 91 | 1015.7 |
| 20260905080503 | 21 | 74 | 6.4 | 12.9 | 0.00 | 0.00 | 0.00 | 92 | 1015.2 |
| 20260905080014 | 21 | 63 | 1.6 | 3.2 | 0.00 | 0.00 | 0.00 | 92 | 1014.3 |
| 20260905075510 | 21 | 63 | 1.6 | 3.2 | 0.00 | 0.00 | 0.00 | 92 | 1014.1 |
| 20260905075009 | 21 | 63 | 1.6 | 3.2 | 0.00 | 0.00 | 0.00 | 91 | 1013.9 |
| 20260905074524 | 21 | 66 | 1.6 | 4.8 | 0.00 | 0.00 | 0.00 | 90 | 1013.9 |
| 20260905074013 | 22 | 65 | 3.2 | 4.8 | 0.00 | 0.00 | 0.00 | 90 | 1013.7 |
| 20260905073511 | 22 | 207 | 0.0 | 3.2 | 0.00 | 0.00 | 0.00 | 91 | 1013.5 |
| 20260905073030 | 22 | 207 | 0.0 | 3.2 | 0.00 | 0.00 | 0.00 | 91 | 1013.4 |
| 20260905072517 | 22 | 207 | 0.0 | 3.2 | 0.00 | 0.00 | 0.00 | 91 | 1013.3 |
| 20260905072003 | 22 | 207 | 0.0 | 0.0 | 0.00 | 0.00 | 0.00 | 90 | 1013.3 |
| 20260905071515 | 22 | 207 | 0.0 | 0.0 | 0.00 | 0.00 | 0.00 | 90 | 1013.2 |
| 20260905071004 | 22 | 207 | 0.0 | 1.6 | 0.00 | 0.00 | 0.00 | 90 | 1013.1 |
| 20260905070503 | 22 | 207 | 0.0 | 1.6 | 0.00 | 0.00 | 0.00 | 90 | 1013.1 |
| 20260905070021 | 22 | 207 | 0.0 | 0.0 | 0.00 | 0.00 | 0.00 | 90 | 1012.9 |
| 20260905065508 | 22 | 207 | 0.0 | 0.0 | 0.00 | 0.00 | 0.00 | 90 | 1012.8 |
| 20260905065008 | 22 | 207 | 0.0 | 3.2 | 0.00 | 0.00 | 0.00 | 90 | 1012.7 |
| 20260905064524 | 22 | 207 | 0.0 | 3.2 | 0.00 | 0.00 | 0.00 | 90 | 1012.9 |
| 20260905064014 | 22 | 207 | 0.0 | 3.2 | 0.00 | 0.00 | 0.00 | 89 | 1012.8 |
| 20260905063512 | 22 | 207 | 1.6 | 3.2 | 0.00 | 0.00 | 0.00 | 89 | 1012.8 |
| 20260905063027 | 22 | 190 | 0.0 | 1.6 | 0.00 | 0.00 | 0.00 | 89 | 1012.9 |
| 20260905062518 | 22 | 190 | 0.0 | 3.2 | 0.00 | 0.00 | 0.00 | 89 | 1012.9 |
| 20260905062015 | 22 | 190 | 0.0 | 3.2 | 0.00 | 0.00 | 0.00 | 89 | 1013.1 |
| 20260905061532 | 22 | 188 | 0.0 | 3.2 | 0.00 | 0.00 | 0.00 | 89 | 1013.1 |
| 20260905061012 | 22 | 171 | 0.0 | 3.2 | 0.00 | 0.00 | 0.00 | 89 | 1013.1 |
| 20260905060508 | 22 | 161 | 0.0 | 3.2 | 0.00 | 0.00 | 0.00 | 89 | 1013.2 |
| 20260905060013 | 22 | 158 | 0.0 | 3.2 | 0.00 | 0.00 | 0.00 | 89 | 1013.4 |
| 20260905055505 | 22 | 158 | 0.0 | 3.2 | 0.00 | 0.00 | 0.00 | 89 | 1013.4 |
| 20260905055009 | 22 | 158 | 0.0 | 1.6 | 0.00 | 0.00 | 0.00 | 89 | 1013.6 |
| 20260905054518 | 22 | 158 | 1.6 | 3.2 | 0.00 | 0.00 | 0.00 | 90 | 1013.7 |
| 20260905054008 | 22 | 158 | 1.6 | 3.2 | 0.00 | 0.00 | 0.00 | 90 | 1013.8 |
| 20260905053512 | 22 | 198 | 0.0 | 4.8 | 0.00 | 0.00 | 0.00 | 90 | 1013.8 |
| 20260905053022 | 23 | 183 | 1.6 | 4.8 | 0.00 | 0.00 | 0.00 | 90 | 1013.9 |
| 20260905052516 | 23 | 190 | 0.0 | 3.2 | 0.00 | 0.00 | 0.00 | 90 | 1014.0 |
| 20260905052016 | 23 | 125 | 0.0 | 3.2 | 0.00 | 0.00 | 0.00 | 90 | 1014.1 |
| 20260905051537 | 23 | 126 | 0.0 | 3.2 | 0.00 | 0.00 | 0.00 | 90 | 1014.2 |
| 20260905051017 | 22 | 125 | 1.6 | 3.2 | 0.00 | 0.00 | 0.00 | 90 | 1014.2 |
| 20260905050517 | 22 | 125 | 1.6 | 3.2 | 0.00 | 0.00 | 0.00 | 90 | 1014.2 |
| 20260905050010 | 23 | 125 | 1.6 | 3.2 | 0.00 | 0.00 | 0.00 | 90 | 1014.3 |
| 20260905045505 | 23 | 125 | 1.6 | 3.2 | 0.00 | 0.00 | 0.00 | 90 | 1014.3 |
| 20260905045006 | 23 | 82 | 0.0 | 3.2 | 0.00 | 0.00 | 0.00 | 90 | 1014.3 |
| 20260905044518 | 23 | 82 | 0.0 | 1.6 | 0.00 | 0.00 | 0.00 | 90 | 1014.4 |
| 20260905044007 | 23 | 82 | 0.0 | 1.6 | 0.00 | 0.00 | 0.00 | 90 | 1014.4 |
| 20260905043508 | 23 | 82 | 0.0 | 3.2 | 0.00 | 0.00 | 0.00 | 90 | 1014.4 |
| 20260905043027 | 23 | 82 | 0.0 | 1.6 | 0.00 | 0.00 | 0.00 | 90 | 1014.5 |
| 20260905042511 | 23 | 72 | 0.0 | 3.2 | 0.00 | 0.00 | 0.00 | 90 | 1014.6 |
| 20260905042013 | 23 | 72 | 0.0 | 3.2 | 0.00 | 0.00 | 0.00 | 89 | 1014.7 |
| 20260905041527 | 23 | 72 | 0.0 | 3.2 | 0.00 | 0.00 | 0.00 | 90 | 1014.7 |
| 20260905041018 | 23 | 72 | 0.0 | 1.6 | 0.00 | 0.00 | 0.00 | 90 | 1014.7 |
| 20260905040515 | 23 | 72 | 0.0 | 1.6 | 0.00 | 0.00 | 0.00 | 90 | 1014.7 |
| 20260905040035 | 23 | 72 | 0.0 | 3.2 | 0.00 | 0.00 | 0.00 | 90 | 1014.8 |
| 20260905035516 | 23 | 72 | 0.0 | 3.2 | 0.00 | 0.00 | 0.00 | 90 | 1014.8 |
| 20260905035005 | 23 | 72 | 0.0 | 3.2 | 0.00 | 0.00 | 0.00 | 90 | 1014.8 |
| 20260905034520 | 23 | 72 | 1.6 | 1.6 | 0.00 | 0.00 | 0.00 | 90 | 1014.8 |
| 20260905034009 | 23 | 72 | 1.6 | 3.2 | 0.00 | 0.00 | 0.00 | 1014.8 | |
| 20260905033507 | 23 | 72 | 1.6 | 3.2 | 0.00 | 0.00 | 0.00 | 89 | 1014.9 |
| 20260905033030 | 23 | 69 | 3.2 | 3.2 | 0.00 | 0.00 | 0.00 | 89 | 1014.8 |
| 20260905032510 | 23 | 70 | 0.0 | 3.2 | 0.00 | 0.00 | 0.00 | 90 | 1014.8 |
| 20260905032012 | 23 | 70 | 0.0 | 1.6 | 0.00 | 0.00 | 0.00 | 90 | 1014.8 |
| 20260905031532 | 23 | 70 | 0.0 | 3.2 | 0.00 | 0.00 | 0.00 | 90 | 1014.9 |
| 20260905031013 | 23 | 70 | 0.0 | 3.2 | 0.00 | 0.00 | 0.00 | 89 | 1014.9 |
| 20260905030514 | 23 | 70 | 0.0 | 3.2 | 0.00 | 0.00 | 0.00 | 89 | 1014.9 |
| 20260905030038 | 23 | 70 | 0.0 | 1.6 | 0.00 | 0.00 | 0.00 | 89 | 1014.9 |
| 20260905025515 | 23 | 70 | 1.6 | 1.6 | 0.00 | 0.00 | 0.00 | 89 | 1014.8 |
| 20260905025016 | 23 | 70 | 1.6 | 1.6 | 0.00 | 0.00 | 0.00 | 89 | 1014.8 |
| 20260905024534 | 23 | 70 | 1.6 | 3.2 | 0.00 | 0.00 | 0.00 | 89 | 1014.7 |
| 20260905024007 | 23 | 70 | 1.6 | 3.2 | 0.00 | 0.00 | 0.00 | 89 | 1014.8 |
| 20260905023507 | 23 | 70 | 0.0 | 3.2 | 0.00 | 0.00 | 0.00 | 89 | 1014.8 |
| 20260905023018 | 23 | 69 | 0.0 | 3.2 | 0.00 | 0.00 | 0.00 | 89 | 1014.7 |
| 20260905022508 | 23 | 69 | 1.6 | 3.2 | 0.00 | 0.00 | 0.00 | 89 | 1014.7 |
| 20260905022012 | 23 | 68 | 0.0 | 3.2 | 0.00 | 0.00 | 0.00 | 89 | 1014.6 |
| 20260905021524 | 23 | 68 | 0.0 | 4.8 | 0.00 | 0.00 | 0.00 | 88 | 1014.7 |
| 20260905021012 | 24 | 68 | 3.2 | 4.8 | 0.00 | 0.00 | 0.00 | 86 | 1014.6 |
| 20260905020516 | 24 | 167 | 0.0 | 4.8 | 0.00 | 0.00 | 0.00 | 87 | 1014.5 |
| 20260905020036 | 24 | 167 | 0.0 | 4.8 | 0.00 | 0.00 | 0.00 | 87 | 1014.3 |
| 20260905015514 | 24 | 167 | 0.0 | 3.2 | 0.00 | 0.00 | 0.00 | 87 | 1014.2 |
| 20260905015016 | 25 | 164 | 0.0 | 3.2 | 0.00 | 0.00 | 0.00 | 86 | 1014.3 |
| 20260905014536 | 25 | 164 | 0.0 | 0.0 | 0.00 | 0.00 | 0.00 | 86 | 1014.2 |
| 20260905014016 | 25 | 164 | 0.0 | 3.2 | 0.00 | 0.00 | 0.00 | 86 | 1014.1 |
| 20260905013518 | 25 | 164 | 0.0 | 3.2 | 0.00 | 0.00 | 0.00 | 86 | 1014.2 |
| 20260905013014 | 25 | 164 | 0.0 | 3.2 | 0.00 | 0.00 | 0.00 | 86 | 1014.1 |
| 20260905012506 | 25 | 164 | 0.0 | 3.2 | 0.00 | 0.00 | 0.00 | 86 | 1014.2 |
| 20260905012010 | 25 | 164 | 0.0 | 3.2 | 0.00 | 0.00 | 0.00 | 85 | 1014.2 |
| 20260905011519 | 25 | 164 | 1.6 | 3.2 | 0.00 | 0.00 | 0.00 | 85 | 1014.2 |
| 20260905011015 | 25 | 164 | 0.0 | 0.0 | 0.00 | 0.00 | 0.00 | 85 | 1014.1 |
| 20260905010511 | 25 | 164 | 0.0 | 0.0 | 0.00 | 0.00 | 0.00 | 84 | 1014.0 |
| 20260905010028 | 25 | 164 | 0.0 | 0.0 | 0.00 | 0.00 | 0.00 | 84 | 1014.1 |
| 20260905005513 | 25 | 164 | 0.0 | 0.0 | 0.00 | 0.00 | 0.00 | 84 | 1014.1 |
| 20260905005014 | 25 | 164 | 0.0 | 3.2 | 0.00 | 0.00 | 0.00 | 84 | 1014.0 |
| 20260905004539 | 25 | 164 | 0.0 | 3.2 | 0.00 | 0.00 | 0.00 | 84 | 1014.0 |
| 20260905004014 | 25 | 164 | 0.0 | 1.6 | 0.00 | 0.00 | 0.00 | 84 | 1014.0 |
| 20260905003521 | 26 | 164 | 0.0 | 1.6 | 0.00 | 0.00 | 0.00 | 84 | 1014.0 |
| 20260905003034 | 26 | 164 | 1.6 | 4.8 | 0.00 | 0.00 | 0.00 | 84 | 1014.1 |
| 20260905002517 | 26 | 164 | 1.6 | 4.8 | 0.00 | 0.00 | 0.00 | 83 | 1014.1 |
| 20260905002006 | 26 | 232 | 0.0 | 1.6 | 0.00 | 0.00 | 0.00 | 82 | 1014.1 |
| 20260905001543 | 27 | 232 | 0.0 | 1.6 | 0.00 | 0.00 | 0.00 | 81 | 1014.1 |
| 20260905001016 | 27 | 232 | 0.0 | 0.0 | 0.00 | 0.00 | 0.00 | 80 | 1014.0 |
| 20260905000511 | 27 | 232 | 0.0 | 0.0 | 0.00 | 0.00 | 0.00 | 79 | 1014.0 |
| 20260905000027 | 27 | 232 | 0.0 | 3.2 | 0.00 | 0.00 | 0.00 | 79 | 1014.0 |
| 20260904235513 | 27 | 232 | 0.0 | 3.2 | 0.00 | 0.00 | 0.00 | 78 | 1013.9 |
| 20260904235012 | 27 | 223 | 0.0 | 3.2 | 0.00 | 0.00 | 0.00 | 78 | 1013.9 |
| 20260904234537 | 27 | 223 | 1.6 | 3.2 | 0.00 | 0.00 | 0.00 | 78 | 1014.0 |
| 20260904234006 | 27 | 224 | 1.6 | 3.2 | 0.00 | 0.00 | 0.00 | 77 | 1013.9 |
| 20260904233503 | 28 | 217 | 0.0 | 3.2 | 0.00 | 0.00 | 0.00 | 76 | 1014.0 |
| 20260904233035 | 28 | 227 | 0.0 | 4.8 | 0.00 | 0.00 | 0.00 | 76 | 1014.0 |
| 20260904232507 | 28 | 220 | 1.6 | 4.8 | 0.00 | 0.00 | 0.00 | 75 | 1013.9 |
| 20260904232007 | 28 | 196 | 3.2 | 8.0 | 0.00 | 0.00 | 0.00 | 75 | 1013.9 |
| 20260904231533 | 28 | 225 | 1.6 | 8.0 | 0.00 | 0.00 | 0.00 | 74 | 1014.0 |
| 20260904231010 | 28 | 220 | 3.2 | 8.0 | 0.00 | 0.00 | 0.00 | 73 | 1013.9 |
| 20260904230511 | 28 | 184 | 3.2 | 6.4 | 0.00 | 0.00 | 0.00 | 73 | 1013.9 |
| 20260904230027 | 28 | 198 | 1.6 | 8.0 | 0.00 | 0.00 | 0.00 | 72 | 1013.9 |
| 20260904225503 | 29 | 163 | 3.2 | 8.0 | 0.00 | 0.00 | 0.00 | 71 | 1013.9 |
| 20260904225003 | 29 | 186 | 1.6 | 8.0 | 0.00 | 0.00 | 0.00 | 71 | 1013.9 |
| 20260904224506 | 29 | 183 | 4.8 | 8.0 | 0.00 | 0.00 | 0.00 | 71 | 1013.9 |
| 20260904224004 | 29 | 220 | 3.2 | 8.0 | 0.00 | 0.00 | 0.00 | 70 | 1014.1 |
| 20260904223505 | 29 | 219 | 4.8 | 8.0 | 0.00 | 0.00 | 0.00 | 69 | 1014.2 |
| 20260904223006 | 28 | 197 | 3.2 | 8.0 | 0.00 | 0.00 | 0.00 | 69 | 1014.2 |
| 20260904222503 | 28 | 211 | 3.2 | 8.0 | 0.00 | 0.00 | 0.00 | 67 | 1014.2 |
| 20260904222005 | 28 | 146 | 4.8 | 12.9 | 0.00 | 0.00 | 0.00 | 67 | 1014.2 |
| 20260904221529 | 28 | 207 | 3.2 | 12.9 | 0.00 | 0.00 | 0.00 | 66 | 1014.2 |
| 20260904221009 | 28 | 223 | 3.2 | 8.0 | 0.00 | 0.00 | 0.00 | 68 | 1014.2 |
| 20260904220509 | 28 | 140 | 3.2 | 9.7 | 0.00 | 0.00 | 0.00 | 67 | 1014.3 |
| 20260904220020 | 28 | 128 | 1.6 | 9.7 | 0.00 | 0.00 | 0.00 | 69 | 1014.3 |
| 20260904215511 | 28 | 192 | 3.2 | 8.0 | 0.00 | 0.00 | 0.00 | 69 | 1014.2 |
| 20260904215013 | 28 | 151 | 4.8 | 9.7 | 0.00 | 0.00 | 0.00 | 69 | 1014.3 |
| 20260904214503 | 28 | 139 | 3.2 | 16.1 | 0.00 | 0.00 | 0.00 | 72 | 1014.3 |
| 20260904214003 | 28 | 171 | 4.8 | 16.1 | 0.00 | 0.00 | 0.00 | 71 | 1014.3 |
| 20260904213503 | 28 | 192 | 8.0 | 16.1 | 0.00 | 0.00 | 0.00 | 69 | 1014.1 |
| 20260904213015 | 28 | 144 | 6.4 | 17.7 | 0.00 | 0.00 | 0.00 | 71 | 1014.1 |
| 20260904212504 | 28 | 134 | 4.8 | 17.7 | 0.00 | 0.00 | 0.00 | 75 | 1014.3 |
| 20260904212006 | 28 | 150 | 6.4 | 12.9 | 0.00 | 0.00 | 0.00 | 75 | 1014.1 |
| 20260904211526 | 28 | 144 | 8.0 | 12.9 | 0.00 | 0.00 | 0.00 | 75 | 1014.1 |
| 20260904211007 | 28 | 196 | 4.8 | 12.9 | 0.00 | 0.00 | 0.00 | 77 | 1014.2 |
| 20260904210506 | 28 | 173 | 6.4 | 12.9 | 0.00 | 0.00 | 0.00 | 75 | 1014.2 |
| 20260904210016 | 27 | 153 | 4.8 | 12.9 | 0.00 | 0.00 | 0.00 | 76 | 1014.1 |
| 20260904205510 | 27 | 144 | 4.8 | 14.5 | 0.00 | 0.00 | 0.00 | 76 | 1014.0 |
| 20260904205011 | 27 | 123 | 4.8 | 14.5 | 0.00 | 0.00 | 0.00 | 78 | 1013.9 |
| 20260904204526 | 27 | 109 | 4.8 | 14.5 | 0.00 | 0.00 | 0.00 | 78 | 1013.8 |
| 20260904204012 | 27 | 156 | 8.0 | 17.7 | 0.00 | 0.00 | 0.00 | 78 | 1013.8 |
| 20260904203503 | 27 | 142 | 9.7 | 17.7 | 0.00 | 0.00 | 0.00 | 76 | 1014.0 |
| 20260904203005 | 27 | 136 | 8.0 | 14.5 | 0.00 | 0.00 | 0.00 | 75 | 1014.3 |
| 20260904202505 | 27 | 144 | 6.4 | 19.3 | 0.00 | 0.00 | 0.00 | 76 | 1014.5 |
| 20260904202003 | 28 | 146 | 12.9 | 19.3 | 0.00 | 0.00 | 0.00 | 73 | 1014.6 |
| 20260904201508 | 28 | 76 | 3.2 | 16.1 | 0.00 | 0.00 | 0.00 | 74 | 1014.8 |
| 20260904201005 | 27 | 144 | 9.7 | 16.1 | 0.00 | 0.00 | 0.00 | 74 | 1015.1 |
| 20260904200510 | 27 | 105 | 4.8 | 9.7 | 0.00 | 0.00 | 0.00 | 77 | 1015.3 |
| 20260904200016 | 26 | 101 | 3.2 | 4.8 | 0.00 | 0.00 | 0.00 | 78 | 1015.4 |
| 20260904195510 | 26 | 108 | 3.2 | 11.3 | 0.00 | 0.00 | 0.00 | 78 | 1015.3 |
| 20260904195012 | 26 | 65 | 3.2 | 11.3 | 0.00 | 0.00 | 0.00 | 78 | 1015.4 |
| 20260904194529 | 27 | 136 | 4.8 | 12.9 | 0.00 | 0.00 | 0.00 | 78 | 1015.3 |
| 20260904194013 | 27 | 111 | 3.2 | 12.9 | 0.00 | 0.00 | 0.00 | 78 | 1015.7 |
| 20260904193512 | 27 | 71 | 6.4 | 12.9 | 0.00 | 0.00 | 0.00 | 78 | 1015.8 |
| 20260904193029 | 27 | 66 | 6.4 | 17.7 | 0.00 | 0.00 | 0.00 | 78 | 1016.0 |
| 20260904192502 | 27 | 71 | 8.0 | 17.7 | 0.00 | 0.00 | 0.00 | 78 | 1016.2 |
| 20260904192003 | 27 | 57 | 9.7 | 19.3 | 0.00 | 0.00 | 0.00 | 76 | 1016.4 |
| 20260904191506 | 27 | 48 | 11.3 | 19.3 | 0.00 | 0.00 | 0.00 | 76 | 1016.5 |
| 20260904191006 | 27 | 69 | 8.0 | 19.3 | 0.00 | 0.00 | 0.00 | 78 | 1016.5 |
| 20260904190506 | 27 | 79 | 11.3 | 19.3 | 0.00 | 0.00 | 0.00 | 76 | 1016.3 |
| 20260904190019 | 27 | 41 | 4.8 | 22.5 | 0.00 | 0.00 | 0.00 | 78 | 1016.5 |
| 20260904185508 | 27 | 68 | 12.9 | 22.5 | 0.00 | 0.00 | 0.00 | 78 | 1016.4 |
| 20260904185009 | 27 | 56 | 6.4 | 16.1 | 0.00 | 0.00 | 0.00 | 79 | 1016.1 |
| 20260904184530 | 27 | 49 | 6.4 | 12.9 | 0.00 | 0.00 | 0.00 | 79 | 1016.3 |
| 20260904184012 | 27 | 50 | 4.8 | 17.7 | 0.00 | 0.00 | 0.00 | 79 | 1016.6 |
| 20260904183512 | 27 | 38 | 4.8 | 25.7 | 0.00 | 0.00 | 0.00 | 78 | 1017.0 |
| 20260904183027 | 27 | 48 | 9.7 | 25.7 | 0.00 | 0.00 | 0.00 | 78 | 1017.1 |
| 20260904182516 | 27 | 46 | 4.8 | 9.7 | 0.00 | 0.00 | 0.00 | 79 | 1017.1 |
| 20260904182018 | 27 | 41 | 3.2 | 8.0 | 0.00 | 0.00 | 0.00 | 80 | 1016.7 |
| 20260904181514 | 27 | 32 | 4.8 | 8.0 | 0.00 | 0.00 | 0.00 | 79 | 1016.3 |
| 20260904181008 | 27 | 32 | 4.8 | 19.3 | 0.00 | 0.00 | 0.00 | 77 | 1016.2 |
| 20260904180503 | 28 | 43 | 4.8 | 19.3 | 0.00 | 0.00 | 0.00 | 75 | 1016.2 |
| 20260904180009 | 29 | 76 | 4.8 | 16.1 | 0.00 | 0.00 | 0.00 | 71 | 1016.3 |
| 20260904175508 | 31 | 65 | 4.8 | 9.7 | 0.00 | 0.00 | 0.00 | 66 | 1016.2 |
| 20260904175007 | 32 | 344 | 4.8 | 12.9 | 0.00 | 0.00 | 0.00 | 61 | 1016.0 |
| 20260904174516 | 32 | 311 | 6.4 | 14.5 | 0.00 | 0.00 | 0.00 | 59 | 1015.9 |
| 20260904174009 | 32 | 332 | 6.4 | 16.1 | 0.00 | 0.00 | 0.00 | 59 | 1016.1 |
| 20260904173515 | 32 | 327 | 9.7 | 16.1 | 0.00 | 0.00 | 0.00 | 56 | 1016.0 |
| 20260904173043 | 33 | 342 | 6.4 | 14.5 | 0.00 | 0.00 | 0.00 | 58 | 1016.1 |
| 20260904172513 | 33 | 305 | 4.8 | 12.9 | 0.00 | 0.00 | 0.00 | 58 | 1016.1 |
| 20260904172012 | 33 | 337 | 4.8 | 12.9 | 0.00 | 0.00 | 0.00 | 58 | 1016.1 |
| 20260904171531 | 32 | 327 | 4.8 | 12.9 | 0.00 | 0.00 | 0.00 | 59 | 1016.1 |
| 20260904171016 | 32 | 300 | 3.2 | 9.7 | 0.00 | 0.00 | 0.00 | 58 | 1016.2 |
| 20260904170504 | 32 | 240 | 4.8 | 12.9 | 0.00 | 0.00 | 0.00 | 59 | 1016.3 |
| 20260904170010 | 32 | 333 | 4.8 | 12.9 | 0.00 | 0.00 | 0.00 | 58 | 1016.4 |
| 20260904165504 | 32 | 5 | 6.4 | 14.5 | 0.00 | 0.00 | 0.00 | 59 | 1016.5 |
| 20260904165005 | 32 | 342 | 9.7 | 14.5 | 0.00 | 0.00 | 0.00 | 57 | 1016.6 |
| 20260904164528 | 32 | 298 | 6.4 | 14.5 | 0.00 | 0.00 | 0.00 | 58 | 1016.7 |
| 20260904164008 | 32 | 321 | 4.8 | 14.5 | 0.00 | 0.00 | 0.00 | 58 | 1016.7 |
| 20260904163507 | 32 | 348 | 6.4 | 14.5 | 0.00 | 0.00 | 0.00 | 58 | 1016.7 |
| 20260904163021 | 32 | 325 | 4.8 | 17.7 | 0.00 | 0.00 | 0.00 | 59 | 1016.7 |
| 20260904162510 | 32 | 328 | 4.8 | 17.7 | 0.00 | 0.00 | 0.00 | 59 | 1016.7 |
| 20260904162013 | 32 | 352 | 6.4 | 14.5 | 0.00 | 0.00 | 0.00 | 59 | 1016.8 |
| 20260904161531 | 32 | 321 | 8.0 | 14.5 | 0.00 | 0.00 | 0.00 | 60 | 1016.8 |